Flight Track Log - Related Links

Times and Time Zones

All times are in EDT time to prevent confusion due to time zone crossing. See the UAL109 flight status page for this flight to view local times or setup timezone preferences in your user account.

Time Position Orientation Groundspeed Altitude Reporting Facility
EDT Latitude Longitude Course Direction KTS MPH feet Rate Location/Type
Wed 07:49:00 AM 56.3875 -10.5965 274° West  Level FlightAware Approximate
Wed 07:50:00 AM 56.3936 -10.7940 273° West  Level FlightAware Approximate
Wed 07:51:00 AM 56.3993 -10.9916 273° West  Level FlightAware Approximate
Wed 07:52:00 AM 56.4047 -11.1892 273° West  Level FlightAware Approximate
Wed 07:53:00 AM 56.4098 -11.3869 273° West  Level FlightAware Approximate
Wed 07:54:00 AM 56.4146 -11.5846 273° West  Level FlightAware Approximate
Wed 07:55:00 AM 56.4191 -11.7824 272° West  Level FlightAware Approximate
Wed 07:56:00 AM 56.4233 -11.9802 272° West  Level FlightAware Approximate
Wed 07:57:00 AM 56.4272 -12.1781 272° West  Level FlightAware Approximate
Wed 07:58:00 AM 56.4307 -12.3759 272° West  Level FlightAware Approximate
Wed 07:59:00 AM 56.4339 -12.5739 272° West  Level FlightAware Approximate
Wed 08:00:00 AM 56.4368 -12.7718 272° West  Level FlightAware Approximate
Wed 08:01:00 AM 56.4394 -12.9698 271° West  Level FlightAware Approximate
Wed 08:02:00 AM 56.4417 -13.1678 271° West  Level FlightAware Approximate
Wed 08:03:00 AM 56.4437 -13.3659 271° West  Level FlightAware Approximate
Wed 08:04:00 AM 56.4453 -13.5639 271° West  Level FlightAware Approximate
Wed 08:05:00 AM 56.4467 -13.7620 271° West  Level FlightAware Approximate
Wed 08:06:00 AM 56.4477 -13.9601 271° West  Level FlightAware Approximate
Wed 08:07:00 AM 56.4484 -14.1582 270° West  Level FlightAware Approximate
Wed 08:08:00 AM 56.4488 -14.3563 270° West  Level FlightAware Approximate
Wed 08:09:00 AM 56.4489 -14.5544 270° West  Level FlightAware Approximate
Wed 08:10:00 AM 56.4486 -14.7525 270° West  Level FlightAware Approximate
Wed 08:11:00 AM 56.4481 -14.9506 270° West  Level FlightAware Approximate
Wed 08:12:00 AM 56.4472 -15.1487 270° West  Level FlightAware Approximate
Wed 08:13:00 AM 56.4460 -15.3468 269° West  Level FlightAware Approximate
Wed 08:14:00 AM 56.4445 -15.5449 269° West  Level FlightAware Approximate
Wed 08:15:00 AM 56.4427 -15.7429 269° West  Level FlightAware Approximate
Wed 08:16:00 AM 56.4406 -15.9409 269° West  Level FlightAware Approximate
Wed 08:17:00 AM 56.4381 -16.1389 269° West  Level FlightAware Approximate
Wed 08:18:00 AM 56.4353 -16.3369 269° West  Level FlightAware Approximate
Wed 08:19:00 AM 56.4323 -16.5349 268° West  Level FlightAware Approximate
Wed 08:20:00 AM 56.4289 -16.7328 268° West  Level FlightAware Approximate
Wed 08:21:00 AM 56.4252 -16.9307 268° West  Level FlightAware Approximate
Wed 08:22:00 AM 56.4211 -17.1285 268° West  Level FlightAware Approximate
Wed 08:23:00 AM 56.4168 -17.3263 268° West  Level FlightAware Approximate
Wed 08:24:00 AM 56.4122 -17.5240 268° West  Level FlightAware Approximate
Wed 08:25:00 AM 56.4072 -17.7217 267° West  Level FlightAware Approximate
Wed 08:26:00 AM 56.4019 -17.9194 267° West  Level FlightAware Approximate
Wed 08:27:00 AM 56.3963 -18.1170 267° West  Level FlightAware Approximate
Wed 08:28:00 AM 56.3904 -18.3145 267° West  Level FlightAware Approximate
Wed 08:29:00 AM 56.3842 -18.5120 267° West  Level FlightAware Approximate
Wed 08:30:00 AM 56.3776 -18.7094 267° West  Level FlightAware Approximate
Wed 08:31:00 AM 56.3708 -18.9067 266° West  Level FlightAware Approximate
Wed 08:32:00 AM 56.3709 -19.1051 270° West  Level Estimated
Wed 08:33:00 AM 56.3706 -19.3035 270° West  Level Estimated
Wed 08:34:00 AM 56.3701 -19.5019 270° West  Level Estimated
Wed 08:35:00 AM 56.3692 -19.7003 270° West  Level Estimated
Wed 08:36:00 AM 56.3680 -19.8987 269° West  Level Estimated
Wed 08:37:00 AM 56.3665 -20.0971 269° West  Level Estimated
Wed 08:38:00 AM 56.3647 -20.2955 269° West  Level Estimated
Wed 08:39:00 AM 56.3625 -20.4938 269° West  Level Estimated
Wed 08:40:00 AM 56.3601 -20.6921 269° West  Level Estimated
Wed 08:41:00 AM 56.3573 -20.8904 269° West  Level Estimated
Wed 08:42:00 AM 56.3542 -21.0887 268° West  Level Estimated
Wed 08:43:00 AM 56.3508 -21.2869 268° West  Level Estimated
Wed 08:44:00 AM 56.3471 -21.4851 268° West  Level Estimated
Wed 08:45:00 AM 56.3430 -21.6832 268° West  Level Estimated
Wed 08:46:00 AM 56.3387 -21.8813 268° West  Level Estimated
Wed 08:47:00 AM 56.3340 -22.0794 268° West  Level Estimated
Wed 08:48:00 AM 56.3290 -22.2774 267° West  Level Estimated
Wed 08:48:00 AM 55.0000 -20.0000 294° West 418 481 33,000  Level ETMS Enhanced Traffic Management System
Wed 08:49:00 AM 56.3237 -22.4753 267° West  Level Estimated
Wed 08:50:00 AM 56.3181 -22.6732 267° West  Level Estimated
Wed 08:50:00 AM 55.1000 -20.3833 293° West 418 481 33,000  Level ETMS Enhanced Traffic Management System
Wed 08:51:00 AM 56.3122 -22.8711 267° West  Level Estimated
Wed 08:52:00 AM 56.3059 -23.0688 267° West  Level Estimated
Wed 08:53:00 AM 56.2994 -23.2666 267° West  Level Estimated
Wed 08:54:00 AM 55.3214 -21.3096 293° West 418 481 33,000  Level FlightAware Transoceanic
Wed 08:55:00 AM 55.3661 -21.4984 293° West 418 481 33,000  Level FlightAware Transoceanic
Wed 08:56:00 AM 55.4163 -21.6976 292° West 418 481 33,000  Level FlightAware Transoceanic
Wed 08:57:00 AM 55.4603 -21.8871 292° West 418 481 33,000  Level FlightAware Transoceanic
Wed 08:58:00 AM 55.5040 -22.0769 292° West 418 481 33,000  Level FlightAware Transoceanic
Wed 08:59:00 AM 55.5475 -22.2672 292° West 418 481 33,000  Level FlightAware Transoceanic
Wed 09:00:00 AM 55.5906 -22.4579 292° West 418 481 33,000  Level FlightAware Transoceanic
Wed 09:01:00 AM 55.6334 -22.6491 292° West 418 481 33,000  Level FlightAware Transoceanic
Wed 09:02:00 AM 55.6760 -22.8406 291° West 418 481 33,000  Level FlightAware Transoceanic
Wed 09:03:00 AM 55.7182 -23.0326 291° West 418 481 33,000  Level FlightAware Transoceanic
Wed 09:04:00 AM 55.7602 -23.2250 291° West 418 481 33,000  Level FlightAware Transoceanic
Wed 09:05:00 AM 55.8018 -23.4178 291° West 418 481 33,000  Level FlightAware Transoceanic
Wed 09:06:00 AM 55.8431 -23.6110 291° West 418 481 33,000  Level FlightAware Transoceanic
Wed 09:07:00 AM 55.8842 -23.8046 291° West 418 481 33,000  Level FlightAware Transoceanic
Wed 09:08:00 AM 55.9249 -23.9986 290° West 418 481 33,000  Level FlightAware Transoceanic
Wed 09:09:00 AM 55.9653 -24.1930 290° West 418 481 33,000  Level FlightAware Transoceanic
Wed 09:10:00 AM 56.0055 -24.3879 290° West 418 481 33,000  Level FlightAware Transoceanic
Wed 09:11:00 AM 56.0453 -24.5831 290° West 418 481 33,000  Level FlightAware Transoceanic
Wed 09:12:00 AM 56.0848 -24.7787 290° West 418 481 33,000  Level FlightAware Transoceanic
Wed 09:13:00 AM 56.1240 -24.9748 290° West 418 481 33,000  Level FlightAware Transoceanic
Wed 09:14:00 AM 56.1629 -25.1712 289° West 418 481 33,000  Level FlightAware Transoceanic
Wed 09:15:00 AM 56.2014 -25.3681 289° West 418 481 33,000  Level FlightAware Transoceanic
Wed 09:16:00 AM 56.2397 -25.5653 289° West 418 481 33,000  Level FlightAware Transoceanic
Wed 09:17:00 AM 56.2776 -25.7629 289° West 418 481 33,000  Level FlightAware Transoceanic
Wed 09:18:00 AM 56.3153 -25.9609 289° West 418 481 33,000  Level FlightAware Transoceanic
Wed 09:19:00 AM 56.3526 -26.1593 289° West 418 481 33,000  Level FlightAware Transoceanic
Wed 09:20:00 AM 56.3896 -26.3581 288° West 418 481 33,000  Level FlightAware Transoceanic
Wed 09:21:00 AM 56.4263 -26.5573 288° West 418 481 33,000  Level FlightAware Transoceanic
Wed 09:22:00 AM 56.4626 -26.7568 288° West 418 481 33,000  Level FlightAware Transoceanic
Wed 09:23:00 AM 56.4986 -26.9568 288° West 418 481 33,000  Level FlightAware Transoceanic
Wed 09:24:00 AM 56.5344 -27.1571 288° West 418 481 33,000  Level FlightAware Transoceanic
Wed 09:25:00 AM 56.5698 -27.3578 288° West 418 481 33,000  Level FlightAware Transoceanic
Wed 09:26:00 AM 56.6048 -27.5589 287° West 418 481 33,000  Level FlightAware Transoceanic
Wed 09:27:00 AM 56.6396 -27.7603 287° West 418 481 33,000  Level FlightAware Transoceanic
Wed 09:28:00 AM 56.6740 -27.9621 287° West 418 481 33,000  Level FlightAware Transoceanic
Wed 09:29:00 AM 56.7081 -28.1643 287° West 418 481 33,000  Level FlightAware Transoceanic
Wed 09:30:00 AM 56.7418 -28.3668 287° West 418 481 33,000  Level FlightAware Transoceanic
Wed 09:31:00 AM 56.7753 -28.5697 287° West 418 481 33,000  Level FlightAware Transoceanic
Wed 09:32:00 AM 56.8084 -28.7730 286° West 418 481 33,000  Level FlightAware Transoceanic
Wed 09:33:00 AM 56.8411 -28.9766 286° West 418 481 33,000  Level FlightAware Transoceanic
Wed 09:34:00 AM 56.8736 -29.1806 286° West 418 481 33,000  Level FlightAware Transoceanic
Wed 09:35:00 AM 56.9057 -29.3849 286° West 418 481 33,000  Level FlightAware Transoceanic
Wed 09:36:00 AM 56.9375 -29.5896 286° West 418 481 33,000  Level FlightAware Transoceanic
Wed 09:37:00 AM 56.9689 -29.7946 286° West 418 481 33,000  Level FlightAware Transoceanic
Wed 09:38:00 AM 56.9983 -29.9889 286° West  Level FlightAware Approximate
Wed 09:39:00 AM 57.0275 -30.1835 285° West  Level FlightAware Approximate
Wed 09:40:00 AM 56.9896 -30.1777 264° West  Level FlightAware Approximate
Wed 09:41:00 AM 56.9775 -30.3782 264° West  Level FlightAware Approximate
Wed 09:42:00 AM 56.9651 -30.5785 264° West  Level FlightAware Approximate
Wed 09:43:00 AM 56.9524 -30.7787 263° West  Level FlightAware Approximate
Wed 09:44:00 AM 56.9394 -30.9787 263° West  Level FlightAware Approximate
Wed 09:45:00 AM 56.9260 -31.1786 263° West  Level FlightAware Approximate
Wed 09:46:00 AM 56.9124 -31.3784 263° West  Level FlightAware Approximate
Wed 09:47:00 AM 56.8984 -31.5780 263° West  Level FlightAware Approximate
Wed 09:48:00 AM 56.8841 -31.7775 263° West  Level FlightAware Approximate
Wed 09:49:00 AM 56.8695 -31.9768 262° West  Level FlightAware Approximate
Wed 09:50:00 AM 56.8545 -32.1759 262° West  Level FlightAware Approximate
Wed 09:51:00 AM 56.8393 -32.3749 262° West  Level FlightAware Approximate
Wed 09:52:00 AM 56.8237 -32.5737 262° West  Level FlightAware Approximate
Wed 09:53:00 AM 56.8078 -32.7724 262° West  Level FlightAware Approximate
Wed 09:54:00 AM 56.7916 -32.9709 262° West  Level FlightAware Approximate
Wed 09:55:00 AM 56.7751 -33.1692 261° West  Level FlightAware Approximate
Wed 09:56:00 AM 56.7583 -33.3673 261° West  Level FlightAware Approximate
Wed 09:57:00 AM 56.7412 -33.5653 261° West  Level FlightAware Approximate
Wed 09:58:00 AM 56.7237 -33.7631 261° West  Level FlightAware Approximate
Wed 09:59:00 AM 56.7060 -33.9607 261° West  Level FlightAware Approximate
Wed 10:00:00 AM 56.6879 -34.1581 261° West  Level FlightAware Approximate
Wed 10:01:00 AM 56.6695 -34.3553 260° West  Level FlightAware Approximate
Wed 10:02:00 AM 56.6508 -34.5523 260° West  Level FlightAware Approximate
Wed 10:03:00 AM 56.6318 -34.7491 260° West  Level FlightAware Approximate
Wed 10:04:00 AM 56.6124 -34.9457 260° West  Level FlightAware Approximate
Wed 10:05:00 AM 56.5928 -35.1421 260° West  Level FlightAware Approximate
Wed 10:06:00 AM 56.5729 -35.3383 260° West  Level FlightAware Approximate
Wed 10:07:00 AM 56.5526 -35.5344 259° West  Level FlightAware Approximate
Wed 10:08:00 AM 56.5321 -35.7301 259° West  Level FlightAware Approximate
Wed 10:09:00 AM 56.5112 -35.9257 259° West  Level FlightAware Approximate
Wed 10:10:00 AM 56.4900 -36.1211 259° West  Level FlightAware Approximate
Wed 10:11:00 AM 56.4686 -36.3162 259° West  Level FlightAware Approximate
Wed 10:12:00 AM 56.4468 -36.5111 259° West  Level FlightAware Approximate
Wed 10:13:00 AM 56.4247 -36.7058 258° West  Level FlightAware Approximate
Wed 10:14:00 AM 56.4023 -36.9003 258° West  Level FlightAware Approximate
Wed 10:15:00 AM 56.3796 -37.0946 258° West  Level FlightAware Approximate
Wed 10:16:00 AM 56.3566 -37.2886 258° West  Level FlightAware Approximate
Wed 10:17:00 AM 56.3333 -37.4823 258° West  Level FlightAware Approximate
Wed 10:18:00 AM 56.3097 -37.6758 258° West  Level FlightAware Approximate
Wed 10:19:00 AM 56.2857 -37.8691 258° West  Level FlightAware Approximate
Wed 10:20:00 AM 56.2615 -38.0622 257° West  Level FlightAware Approximate
Wed 10:21:00 AM 56.2370 -38.2550 257° West  Level FlightAware Approximate
Wed 10:22:00 AM 56.2122 -38.4475 257° West  Level FlightAware Approximate
Wed 10:23:00 AM 56.1871 -38.6398 257° West  Level FlightAware Approximate
Wed 10:24:00 AM 56.1617 -38.8319 257° West  Level FlightAware Approximate
Wed 10:25:00 AM 56.1360 -39.0237 257° West  Level FlightAware Approximate
Wed 10:26:00 AM 56.1100 -39.2152 256° West  Level FlightAware Approximate
Wed 10:27:00 AM 56.0837 -39.4065 256° West  Level FlightAware Approximate
Wed 10:28:00 AM 56.0571 -39.5975 256° West  Level FlightAware Approximate
Wed 10:29:00 AM 56.0302 -39.7883 256° West  Level FlightAware Approximate
Wed 10:30:00 AM 56.0031 -39.9787 256° West  Level FlightAware Approximate
Wed 10:31:00 AM 55.9737 -40.1681 254° West  Level FlightAware Approximate
Wed 10:32:00 AM 55.9439 -40.3570 254° West  Level FlightAware Approximate
Wed 10:33:00 AM 55.9138 -40.5456 254° West  Level FlightAware Approximate
Wed 10:34:00 AM 55.8834 -40.7340 254° West  Level FlightAware Approximate
Wed 10:35:00 AM 55.8526 -40.9220 254° West  Level FlightAware Approximate
Wed 10:36:00 AM 55.8217 -41.1097 254° West  Level FlightAware Approximate
Wed 10:37:00 AM 55.7904 -41.2972 254° West  Level FlightAware Approximate
Wed 10:38:00 AM 55.7588 -41.4843 253° West  Level FlightAware Approximate
Wed 10:39:00 AM 55.7270 -41.6711 253° West  Level FlightAware Approximate
Wed 10:40:00 AM 55.6949 -41.8577 253° West  Level FlightAware Approximate
Wed 10:41:00 AM 55.6624 -42.0439 253° West  Level FlightAware Approximate
Wed 10:42:00 AM 55.6298 -42.2298 253° West  Level FlightAware Approximate
Wed 10:43:00 AM 55.5968 -42.4154 253° West  Level FlightAware Approximate
Wed 10:44:00 AM 55.5637 -42.6008 253° West  Level FlightAware Approximate
Wed 10:45:00 AM 55.5316 -42.7865 253° West  Level FlightAware Approximate
Wed 10:46:00 AM 55.4992 -42.9720 253° West  Level FlightAware Approximate
Wed 10:47:00 AM 55.4665 -43.1571 253° West  Level FlightAware Approximate
Wed 10:48:00 AM 55.4336 -43.3420 253° West  Level FlightAware Approximate
Wed 10:49:00 AM 55.4003 -43.5265 252° West  Level FlightAware Approximate
Wed 10:50:00 AM 55.3668 -43.7107 252° West  Level FlightAware Approximate
Wed 10:51:00 AM 55.3330 -43.8946 252° West  Level FlightAware Approximate
Wed 10:52:00 AM 55.2990 -44.0782 252° West  Level FlightAware Approximate
Wed 10:53:00 AM 55.2646 -44.2615 252° West  Level FlightAware Approximate
Wed 10:54:00 AM 55.2300 -44.4445 252° West  Level FlightAware Approximate
Wed 10:55:00 AM 55.1951 -44.6271 252° West  Level FlightAware Approximate
Wed 10:56:00 AM 55.1600 -44.8094 251° West  Level FlightAware Approximate
Wed 10:57:00 AM 55.1246 -44.9914 251° West  Level FlightAware Approximate
Wed 10:58:00 AM 55.0887 -45.1730 251° West  Level FlightAware Approximate
Wed 10:59:00 AM 55.0523 -45.3541 251° West  Level FlightAware Approximate
Wed 11:00:00 AM 55.0157 -45.5348 251° West  Level FlightAware Approximate
Wed 11:01:00 AM 54.9787 -45.7152 250° West  Level FlightAware Approximate
Wed 11:02:00 AM 54.9415 -45.8953 250° West  Level FlightAware Approximate
Wed 11:03:00 AM 54.9041 -46.0751 250° West  Level FlightAware Approximate
Wed 11:04:00 AM 54.8663 -46.2545 250° West  Level FlightAware Approximate
Wed 11:05:00 AM 54.8284 -46.4336 250° West  Level FlightAware Approximate
Wed 11:06:00 AM 54.7901 -46.6123 250° West  Level FlightAware Approximate
Wed 11:07:00 AM 54.7516 -46.7907 250° West  Level FlightAware Approximate
Wed 11:08:00 AM 54.7128 -46.9688 249° West  Level FlightAware Approximate
Wed 11:09:00 AM 54.6738 -47.1465 249° West  Level FlightAware Approximate
Wed 11:10:00 AM 54.6344 -47.3239 249° West  Level FlightAware Approximate
Wed 11:11:00 AM 54.5949 -47.5009 249° West  Level FlightAware Approximate
Wed 11:12:00 AM 54.5551 -47.6776 249° West  Level FlightAware Approximate
Wed 11:13:00 AM 54.5150 -47.8540 249° West  Level FlightAware Approximate
Wed 11:14:00 AM 54.4747 -48.0300 249° West  Level FlightAware Approximate
Wed 11:15:00 AM 54.4341 -48.2056 248° West  Level FlightAware Approximate
Wed 11:16:00 AM 54.3932 -48.3809 248° West  Level FlightAware Approximate
Wed 11:17:00 AM 54.3521 -48.5559 248° West  Level FlightAware Approximate
Wed 11:18:00 AM 54.3108 -48.7305 248° West  Level FlightAware Approximate
Wed 11:19:00 AM 54.2692 -48.9047 248° West  Level FlightAware Approximate
Wed 11:20:00 AM 54.2273 -49.0786 248° West  Level FlightAware Approximate
Wed 11:21:00 AM 54.1852 -49.2522 248° West  Level FlightAware Approximate
Wed 11:22:00 AM 54.1429 -49.4254 247° West  Level FlightAware Approximate
Wed 11:23:00 AM 54.1003 -49.5982 247° West  Level FlightAware Approximate
Wed 11:24:00 AM 54.0575 -49.7707 247° West  Level FlightAware Approximate
Wed 11:25:00 AM 54.0144 -49.9428 247° West  Level FlightAware Approximate
Wed 11:26:00 AM 53.9734 -50.1162 249° West  Level FlightAware Approximate
Wed 11:27:00 AM 53.9334 -50.2901 249° West  Level FlightAware Approximate
Wed 11:28:00 AM 53.8931 -50.4637 249° West  Level FlightAware Approximate
Wed 11:29:00 AM 53.8525 -50.6369 248° West  Level FlightAware Approximate
Wed 11:30:00 AM 53.8117 -50.8098 248° West  Level FlightAware Approximate
Wed 11:31:00 AM 53.7707 -50.9823 248° West  Level FlightAware Approximate
Wed 11:32:00 AM 53.7287 -51.1571 248° West  Level FlightAware Approximate
Wed 11:33:00 AM 53.6866 -51.3316 248° West  Level FlightAware Approximate
Wed 11:34:00 AM 53.6441 -51.5057 248° West  Level FlightAware Approximate
Wed 11:35:00 AM 53.6015 -51.6794 248° West  Level FlightAware Approximate
Wed 11:36:00 AM 53.5585 -51.8528 247° West  Level FlightAware Approximate
Wed 11:37:00 AM 53.5154 -52.0259 247° West  Level FlightAware Approximate
Wed 11:38:00 AM 53.4719 -52.1986 247° West  Level FlightAware Approximate
Wed 11:39:00 AM 53.4283 -52.3709 247° West  Level FlightAware Approximate
Wed 11:40:00 AM 53.3843 -52.5429 247° West  Level FlightAware Approximate
Wed 11:41:00 AM 53.3402 -52.7145 247° West  Level FlightAware Approximate
Wed 11:42:00 AM 53.2958 -52.8857 247° West  Level FlightAware Approximate
Wed 11:43:00 AM 53.2511 -53.0567 246° West  Level FlightAware Approximate
Wed 11:44:00 AM 53.2062 -53.2272 246° West  Level FlightAware Approximate
Wed 11:44:29 AM 53.1667 -53.7667 242° Southwest 410 472 33,000  Level Gander Center
Wed 11:45:00 AM 53.1610 -53.3974 246° West  Level FlightAware Approximate
Wed 11:45:29 AM 53.1167 -53.9500 246° West 410 472 33,000  Level Gander Center
Wed 11:46:00 AM 53.1157 -53.5672 246° West  Level FlightAware Approximate
Wed 11:46:29 AM 53.0667 -54.1000 241° Southwest 400 460 33,000  Level Gander Center
Wed 11:47:00 AM 53.0700 -53.7367 246° West  Level FlightAware Approximate
Wed 11:47:29 AM 53.0000 -54.2500 234° Southwest 400 460 33,000  Level Gander Center
Wed 11:48:00 AM 53.0242 -53.9058 246° West  Level FlightAware Approximate
Wed 11:49:00 AM 52.9632 -54.0564 242° Southwest  Level Estimated
Wed 11:49:29 AM 52.9000 -54.6000 245° Southwest 410 472 33,300  Level Gander Center
Wed 11:50:29 AM 52.8500 -54.7667 244° Southwest 410 472 34,800 1,400 Climbing Gander Center
Wed 11:51:29 AM 52.8000 -54.9167 241° Southwest 410 472 36,100 1,121 Climbing Gander Center
Wed 11:52:00 AM 52.7667 -55.0167 241° Southwest 410 472 36,500 989 Climbing Moncton Center
Wed 11:53:00 AM 52.7000 -55.1833 237° Southwest 410 472 37,600 750 Climbing Moncton Center
Wed 11:54:00 AM 52.6500 -55.3333 241° Southwest 420 483 38,000 218 Climbing Moncton Center
Wed 11:54:50 AM 52.6000 -55.5000 244° Southwest 420 483 38,000  Level Gander Center
Wed 11:55:50 AM 52.5500 -55.6667 244° Southwest 420 483 38,000  Level Gander Center
Wed 11:56:50 AM 52.4833 -55.8500 239° Southwest 420 483 38,000  Level Gander Center
Wed 11:57:50 AM 52.4500 -55.9833 248° West 420 483 38,000  Level Gander Center
Wed 11:58:50 AM 52.3833 -56.1500 237° Southwest 410 472 38,000  Level Gander Center
Wed 11:59:29 AM 52.3500 -56.2667 245° Southwest 410 472 38,000  Level Gander Center
Wed 12:00:00 PM 52.3000 -56.3500 226° Southwest 410 472 38,000  Level Moncton Center
Wed 12:00:50 PM 52.2667 -56.4667 245° Southwest 410 472 38,000  Level Gander Center
Wed 12:01:50 PM 52.2000 -56.6500 239° Southwest 410 472 38,000  Level Gander Center
Wed 12:02:29 PM 52.1667 -56.7500 242° Southwest 410 472 38,000  Level Gander Center
Wed 12:03:00 PM 52.1500 -56.8167 248° West 410 472 38,000  Level Moncton Center
Wed 12:03:50 PM 52.1000 -56.9833 244° Southwest 410 472 38,000  Level Gander Center
Wed 12:04:29 PM 52.0500 -57.0667 226° Southwest 410 472 38,000  Level Gander Center
Wed 12:05:00 PM 52.0167 -57.1333 231° Southwest 410 472 38,000  Level Moncton Center
Wed 12:06:00 PM 51.9667 -57.3000 244° Southwest 410 472 38,000  Level Moncton Center
Wed 12:07:00 PM 51.9000 -57.4500 234° Southwest 410 472 38,000  Level Moncton Center
Wed 12:07:50 PM 51.8500 -57.6000 242° Southwest 410 472 38,000  Level Gander Center
Wed 12:08:29 PM 51.8167 -57.6833 237° Southwest 410 472 38,000  Level Gander Center
Wed 12:09:29 PM 51.7500 -57.8500 237° Southwest 410 472 38,000  Level Gander Center
Wed 12:10:29 PM 51.7000 -58.0167 244° Southwest 410 472 38,000  Level Gander Center
Wed 12:11:29 PM 51.6333 -58.1833 237° Southwest 420 483 38,000  Level Gander Center
Wed 12:12:00 PM 51.6000 -58.2500 231° Southwest 410 472 38,000  Level Moncton Center
Wed 12:13:00 PM 51.5333 -58.4167 237° Southwest 420 483 38,000  Level Moncton Center
Wed 12:14:00 PM 51.4667 -58.5667 235° Southwest 420 483 38,000  Level Moncton Center
Wed 12:15:00 PM 51.4167 -58.7000 239° Southwest 420 483 38,000  Level Moncton Center
Wed 12:16:00 PM 51.3500 -58.8667 237° Southwest 420 483 38,000  Level Moncton Center
Wed 12:16:50 PM 51.3000 -59.0167 242° Southwest 420 483 38,000  Level Gander Center
Wed 12:17:29 PM 51.2500 -59.1167 231° Southwest 420 483 38,000  Level Gander Center
Wed 12:18:29 PM 51.1833 -59.2833 238° Southwest 420 483 38,000  Level Gander Center
Wed 12:19:29 PM 51.1167 -59.4500 238° Southwest 420 483 38,000  Level Gander Center
Wed 12:20:29 PM 51.0667 -59.5833 239° Southwest 420 483 38,000  Level Gander Center
Wed 12:21:29 PM 51.0000 -59.7333 235° Southwest 420 483 38,000  Level Gander Center
Wed 12:22:29 PM 50.9333 -59.9000 238° Southwest 420 483 38,000  Level Gander Center
Wed 12:23:29 PM 50.8667 -60.0333 232° Southwest 410 472 38,000  Level Gander Center
Wed 12:24:29 PM 50.8167 -60.2000 245° Southwest 410 472 38,000  Level Gander Center
Wed 12:25:29 PM 50.7500 -60.3500 235° Southwest 410 472 38,000  Level Gander Center
Wed 12:26:29 PM 50.6833 -60.4833 232° Southwest 410 472 38,000  Level Gander Center
Wed 12:27:29 PM 50.6167 -60.6500 238° Southwest 410 472 38,000  Level Gander Center
Wed 12:28:29 PM 50.5500 -60.7833 232° Southwest 410 472 38,000  Level Gander Center
Wed 12:29:29 PM 50.4833 -60.9333 235° Southwest 410 472 38,000  Level Gander Center
Wed 12:30:29 PM 50.4167 -61.1000 238° Southwest 420 483 38,000  Level Gander Center
Wed 12:31:00 PM 50.3833 -61.1667 232° Southwest 420 483 38,000  Level Moncton Center
Wed 12:32:00 PM 50.3167 -61.3333 238° Southwest 410 472 38,000  Level Moncton Center
Wed 12:33:00 PM 50.2500 -61.4667 232° Southwest 410 472 38,000  Level Moncton Center
Wed 12:34:00 PM 50.2000 -61.6167 243° Southwest 410 472 38,000  Level Moncton Center
Wed 12:35:00 PM 50.1333 -61.7667 235° Southwest 410 472 38,000  Level Moncton Center
Wed 12:36:00 PM 50.0667 -61.9000 232° Southwest 410 472 38,000  Level Moncton Center
Wed 12:37:00 PM 50.0000 -62.0500 235° Southwest 410 472 38,000  Level Moncton Center
Wed 12:38:00 PM 49.9167 -62.1833 226° Southwest 400 460 38,000  Level Moncton Center
Wed 12:39:00 PM 49.8667 -62.3167 240° Southwest 390 449 38,000  Level Moncton Center
Wed 12:40:00 PM 49.8167 -62.4833 245° Southwest 390 449 38,000  Level Moncton Center
Wed 12:41:00 PM 49.7500 -62.6167 232° Southwest 400 460 38,000  Level Moncton Center
Wed 12:42:00 PM 49.6833 -62.7333 229° Southwest 390 449 38,000  Level Moncton Center
Wed 12:43:00 PM 49.6167 -62.8667 232° Southwest 390 449 38,000  Level Moncton Center
Wed 12:44:00 PM 49.5500 -63.0000 232° Southwest 380 437 38,000  Level Moncton Center
Wed 12:45:00 PM 49.4833 -63.1667 238° Southwest 390 449 38,000  Level Moncton Center
Wed 12:46:00 PM 49.4167 -63.2833 229° Southwest 390 449 38,000  Level Moncton Center
Wed 12:47:00 PM 49.3500 -63.4167 233° Southwest 390 449 38,000  Level Moncton Center
Wed 12:48:00 PM 49.2833 -63.5500 233° Southwest 390 449 38,000  Level Moncton Center
Wed 12:49:00 PM 49.2167 -63.6833 233° Southwest 390 449 38,000  Level Moncton Center
Wed 12:50:00 PM 49.1667 -63.8000 237° Southwest 390 449 38,000  Level Moncton Center
Wed 12:51:00 PM 49.0833 -63.9667 233° Southwest 390 449 38,000  Level Moncton Center
Wed 12:52:00 PM 49.0333 -64.0833 237° Southwest 390 449 38,000  Level Moncton Center
Wed 12:53:29 PM 48.9500 -64.2833 238° Southwest 380 437 38,000  Level Gander Center
Wed 12:54:29 PM 48.8667 -64.4000 223° Southwest 380 437 38,000  Level Gander Center
Wed 12:55:00 PM 48.8333 -64.4667 233° Southwest 380 437 38,000  Level Moncton Center
Wed 12:56:00 PM 48.7833 -64.6000 240° Southwest 380 437 38,000  Level Moncton Center
Wed 12:57:00 PM 48.7167 -64.7333 233° Southwest 370 426 38,000  Level Moncton Center
Wed 12:58:00 PM 48.6500 -64.8500 229° Southwest 370 426 38,000  Level Moncton Center
Wed 12:59:00 PM 48.6000 -64.9833 240° Southwest 360 414 38,000  Level Moncton Center
Wed 01:00:00 PM 48.5333 -65.1000 229° Southwest 370 426 38,000  Level Moncton Center
Wed 01:01:00 PM 48.4667 -65.2000 225° Southwest 370 426 38,000  Level Moncton Center
Wed 01:02:00 PM 48.4000 -65.3500 236° Southwest 370 426 38,000  Level Moncton Center
Wed 01:03:00 PM 48.3500 -65.4500 233° Southwest 370 426 38,000  Level Moncton Center
Wed 01:04:00 PM 48.2833 -65.5833 233° Southwest 380 437 38,000  Level Moncton Center
Wed 01:05:00 PM 48.2167 -65.7000 229° Southwest 370 426 38,000  Level Moncton Center
Wed 01:06:00 PM 48.1500 -65.8333 233° Southwest 380 437 38,000  Level Moncton Center
Wed 01:07:00 PM 48.0833 -65.9500 229° Southwest 380 437 38,000  Level Moncton Center
Wed 01:08:00 PM 48.0167 -66.0667 230° Southwest 380 437 38,000  Level Moncton Center
Wed 01:09:00 PM 47.9500 -66.2000 233° Southwest 380 437 38,000  Level Moncton Center
Wed 01:10:00 PM 47.8833 -66.3167 230° Southwest 380 437 38,000  Level Moncton Center
Wed 01:11:00 PM 47.8333 -66.4500 241° Southwest 380 437 38,000  Level Moncton Center
Wed 01:12:00 PM 47.7667 -66.5667 230° Southwest 380 437 38,000  Level Moncton Center
Wed 01:13:00 PM 47.7000 -66.6833 230° Southwest 370 426 38,000  Level Moncton Center
Wed 01:14:00 PM 47.6167 -66.8000 223° Southwest 370 426 38,000  Level Moncton Center
Wed 01:15:00 PM 47.5667 -66.9333 241° Southwest 370 426 38,000  Level Moncton Center
Wed 01:16:00 PM 47.5000 -67.0500 230° Southwest 370 426 38,000  Level Moncton Center
Wed 01:17:00 PM 47.4333 -67.1667 230° Southwest 370 426 38,000  Level Moncton Center
Wed 01:18:00 PM 47.3833 -67.2833 238° Southwest 370 426 38,000  Level Moncton Center
Wed 01:19:00 PM 47.3167 -67.4167 234° Southwest 370 426 38,000  Level Moncton Center
Wed 01:19:44 PM 47.2736 -67.4667 218° Southwest 382 440 38,000  Level Boston Center
Wed 01:20:44 PM 47.2053 -67.5797 228° Southwest 377 434 38,000  Level Boston Center
Wed 01:21:44 PM 47.1508 -67.6731 229° Southwest 377 434 38,000  Level Boston Center
Wed 01:22:44 PM 47.0689 -67.8144 230° Southwest 383 441 38,000  Level Boston Center
Wed 01:23:44 PM 47.0006 -67.9267 228° Southwest 378 435 38,000  Level Boston Center
Wed 01:24:44 PM 46.9300 -68.0478 230° Southwest 389 448 38,000  Level Boston Center
Wed 01:25:44 PM 46.8636 -68.1625 230° Southwest 389 448 38,000  Level Boston Center
Wed 01:26:44 PM 46.7903 -68.2711 225° Southwest 384 442 38,000  Level Boston Center
Wed 01:27:44 PM 46.7239 -68.3911 231° Southwest 379 436 38,000  Level Boston Center
Wed 01:28:44 PM 46.6550 -68.5081 229° Southwest 379 436 38,000  Level Boston Center
Wed 01:29:44 PM 46.5836 -68.6158 226° Southwest 379 436 38,000  Level Boston Center
Wed 01:30:44 PM 46.5144 -68.7319 229° Southwest 379 436 38,000  Level Boston Center
Wed 01:31:56 PM 46.4289 -68.8672 227° Southwest 379 436 38,000  Level Boston Center
Wed 01:32:56 PM 46.3575 -68.9800 227° Southwest 379 436 38,000  Level Boston Center
Wed 01:33:56 PM 46.2858 -69.0956 228° Southwest 385 443 38,000  Level Boston Center
Wed 01:34:56 PM 46.2139 -69.2078 227° Southwest 385 443 38,000  Level Boston Center
Wed 01:35:56 PM 46.1422 -69.3228 228° Southwest 380 437 38,000  Level Boston Center
Wed 01:36:56 PM 46.0722 -69.4372 229° Southwest 380 437 38,000  Level Boston Center
Wed 01:37:56 PM 46.0000 -69.5486 227° Southwest 380 437 38,000  Level Boston Center
Wed 01:38:56 PM 45.9278 -69.6628 228° Southwest 380 437 38,000  Level Boston Center
Wed 01:39:56 PM 45.8553 -69.7706 226° Southwest 380 437 38,000  Level Boston Center
Wed 01:40:56 PM 45.7831 -69.8869 228° Southwest 385 443 38,000  Level Boston Center
Wed 01:41:56 PM 45.7083 -69.9972 226° Southwest 385 443 38,000  Level Boston Center
Wed 01:42:56 PM 45.6358 -70.1133 228° Southwest 385 443 38,000  Level Boston Center
Wed 01:43:56 PM 45.5608 -70.2258 226° Southwest 385 443 38,000  Level Boston Center
Wed 01:46:08 PM 45.3986 -70.4744 227° Southwest 385 443 38,000  Level Boston Center
Wed 01:47:08 PM 45.3256 -70.5833 226° Southwest 385 443 38,000  Level Boston Center
Wed 01:48:08 PM 45.2503 -70.6947 226° Southwest 385 443 38,000  Level Boston Center
Wed 01:49:20 PM 45.1769 -70.8061 227° Southwest 385 443 38,000  Level Boston Center
Wed 01:50:20 PM 45.0869 -70.9378 226° Southwest 385 443 38,000  Level Boston Center
Wed 01:51:20 PM 45.0175 -71.0453 228° Southwest 380 437 38,000  Level Boston Center
Wed 01:52:20 PM 44.9397 -71.1558 225° Southwest 380 437 38,000  Level Boston Center
Wed 01:53:20 PM 44.8658 -71.2658 227° Southwest 385 443 38,000  Level Boston Center
Wed 01:54:20 PM 44.7919 -71.3756 227° Southwest 385 443 38,000  Level Boston Center
Wed 01:55:20 PM 44.7158 -71.4850 226° Southwest 385 443 38,000  Level Boston Center
Wed 01:56:20 PM 44.6353 -71.6028 226° Southwest 385 443 38,000  Level Boston Center
Wed 01:57:20 PM 44.5611 -71.7117 226° Southwest 385 443 38,000  Level Boston Center
Wed 01:58:20 PM 44.4847 -71.8175 225° Southwest 385 443 38,000  Level Boston Center
Wed 01:59:20 PM 44.4144 -71.9169 225° Southwest 385 443 38,000  Level Boston Center
Wed 02:00:20 PM 44.3397 -72.0250 226° Southwest 390 449 38,000  Level Boston Center
Wed 02:01:20 PM 44.2797 -72.1094 225° Southwest 390 449 38,000  Level Boston Center
Wed 02:02:20 PM 44.1842 -72.2547 227° Southwest 390 449 38,000  Level Boston Center
Wed 02:03:20 PM 44.1050 -72.3592 223° Southwest 390 449 38,000  Level Boston Center
Wed 02:04:20 PM 44.0281 -72.4661 225° Southwest 390 449 38,000  Level Boston Center
Wed 02:05:20 PM 43.9508 -72.5756 226° Southwest 390 449 38,000  Level Boston Center
Wed 02:06:20 PM 43.8736 -72.6819 225° Southwest 397 457 38,000 -50 Level Boston Center
Wed 02:07:20 PM 43.7961 -72.7908 225° Southwest 402 463 37,900 -800 Descending Boston Center
Wed 02:08:20 PM 43.7208 -72.8969 226° Southwest 402 463 36,400 -1,550 Descending Boston Center
Wed 02:09:20 PM 43.6494 -73.0025 227° Southwest 396 456 34,800 -1,550 Descending Boston Center
Wed 02:10:20 PM 43.5803 -73.0936 224° Southwest 389 448 33,300 -1,600 Descending Boston Center
Wed 02:11:20 PM 43.5086 -73.1931 225° Southwest 379 436 31,600 -1,700 Descending Boston Center
Wed 02:12:20 PM 43.4350 -73.2892 223° Southwest 379 436 29,900 -1,700 Descending Boston Center
Wed 02:13:20 PM 43.3656 -73.3825 224° Southwest 374 430 28,200 -1,700 Descending Boston Center
Wed 02:14:20 PM 43.2981 -73.4783 226° Southwest 361 415 26,500 -1,650 Descending Boston Center
Wed 02:15:20 PM 43.2286 -73.5656 222° Southwest 354 407 24,900 -1,600 Descending Boston Center
Wed 02:16:20 PM 43.1486 -73.6353 212° Southwest 348 400 23,300 -1,700 Descending Boston Center
Wed 02:17:20 PM 43.0481 -73.6789 198° South 348 400 21,500 -1,150 Descending Boston Center
Wed 02:18:20 PM 42.9581 -73.7167 197° South 348 400 21,000 -850 Descending Boston Center
Wed 02:19:20 PM 42.8700 -73.7544 197° South 342 394 19,800 -1,350 Descending Boston Center
Wed 02:20:20 PM 42.7967 -73.7842 197° South 323 372 18,300 -1,400 Descending Boston Center
Wed 02:21:20 PM 42.7131 -73.8219 198° South 323 372 17,000 -1,150 Descending Boston Center
Wed 02:22:20 PM 42.6292 -73.8622 199° South 323 372 16,000 -500 Descending Boston Center
Wed 02:23:20 PM 42.5369 -73.8969 196° South 323 372 16,000  Level Boston Center
Wed 02:24:32 PM 42.4383 -73.9425 199° South 323 372 16,000  Level Boston Center
Wed 02:25:32 PM 42.3650 -73.9744 198° South 323 372 16,000  Level Boston Center
Wed 02:26:32 PM 42.2958 -74.0036 197° South 323 372 16,000  Level Boston Center
Wed 02:27:32 PM 42.1994 -74.0489 199° South 317 365 16,000  Level Boston Center
Wed 02:28:32 PM 42.1050 -74.0911 198° South 317 365 16,000 50 Level Boston Center
Wed 02:29:32 PM 42.0211 -74.1281 198° South 322 371 16,100 -150 Climbing Boston Center
Wed 02:30:32 PM 41.9392 -74.1622 197° South 322 371 15,700 -550 Descending Boston Center
Wed 02:31:32 PM 41.8614 -74.1989 199° South 313 360 15,000 -850 Descending Boston Center
Wed 02:32:32 PM 41.7903 -74.2306 198° South 285 328 14,000 -500 Descending Boston Center
Wed 02:33:32 PM 41.7147 -74.2617 197° South 285 328 14,000  Level Boston Center
Wed 02:34:32 PM 41.6472 -74.3042 205° Southwest 285 328 14,000 -150 Level Boston Center
Wed 02:35:32 PM 41.6583 -74.3881 280° West 223 257 13,700 -850 Descending Boston Center
Wed 02:36:32 PM 41.7400 -74.3708 North 200 230 12,300 -1,136 Descending Boston Center
Wed 02:37:44 PM 41.8133 -74.3481 13° North 229 264 11,200 -1,591 Descending Boston Center
Wed 02:38:44 PM 41.8400 -74.2458 71° East 227 261 8,800 -1,600 Descending Boston Center
Wed 02:39:44 PM 41.7778 -74.2272 167° South 141 162 8,000 -400 Descending Boston Center
Wed 02:40:44 PM 41.7000 -74.2669 201° Southwest 230 265 8,000 -350 Level Boston Center
Wed 02:41:44 PM 41.6369 -74.2928 197° South 261 300 7,300 -500 Descending Boston Center
Wed 02:42:44 PM 41.5614 -74.3267 199° South 261 300 7,000 -150 Descending Boston Center
Wed 02:43:44 PM 41.5006 -74.3525 198° South 266 306 7,000  Level Boston Center
Wed 02:46:14 PM 41.3167 -74.4333 198° South 260 299 7,000  Level New York TRACON
Wed 02:47:14 PM 41.2500 -74.4667 201° Southwest 259 298 7,000 -450 Level New York TRACON
Wed 02:48:14 PM 41.1833 -74.4500 169° South 257 296 6,100 -450 Descending New York TRACON
Wed 02:49:14 PM 41.1167 -74.4333 169° South 229 264 6,100  Level New York TRACON
Wed 02:50:14 PM 41.0667 -74.4333 180° South 195 224 6,100 -500 Level New York TRACON
Wed 02:51:14 PM 41.0500 -74.3667 108° East 217 250 5,100 -762 Descending New York TRACON
Wed 02:52:20 PM 41.0167 -74.3000 124° Southeast 205 236 4,500 -500 Descending New York TRACON
Wed 02:53:14 PM 40.9833 -74.2333 124° Southeast 208 239 4,100 -200 Descending New York TRACON
Wed 02:54:20 PM 40.9500 -74.1667 123° Southeast 205 236 4,100  Level New York TRACON
Wed 02:55:14 PM 40.9333 -74.1167 114° Southeast 197 227 4,100  Level New York TRACON

Login

Don't have an account? Register now (free) for customized features, flight alerts, and more!